sensor_id;sensor_type;location;lat;lon;timestamp;temperature;humidity
30250;DHT22;17064;47.974;13.826;2022-08-19T00:04:18;19.90;99.90
30250;DHT22;17064;47.974;13.826;2022-08-19T00:09:40;19.90;99.90
30250;DHT22;17064;47.974;13.826;2022-08-19T00:15:01;19.90;99.90
30250;DHT22;17064;47.974;13.826;2022-08-19T00:20:22;19.90;99.90
30250;DHT22;17064;47.974;13.826;2022-08-19T00:25:43;19.80;99.90
30250;DHT22;17064;47.974;13.826;2022-08-19T00:31:06;19.80;99.90
30250;DHT22;17064;47.974;13.826;2022-08-19T00:36:28;19.70;99.90
30250;DHT22;17064;47.974;13.826;2022-08-19T00:41:50;19.70;99.90
30250;DHT22;17064;47.974;13.826;2022-08-19T00:47:12;19.60;99.90
30250;DHT22;17064;47.974;13.826;2022-08-19T00:52:36;19.60;99.90
30250;DHT22;17064;47.974;13.826;2022-08-19T00:58:02;19.60;99.90
30250;DHT22;17064;47.974;13.826;2022-08-19T01:03:24;19.60;99.90
30250;DHT22;17064;47.974;13.826;2022-08-19T01:08:45;19.60;99.90
30250;DHT22;17064;47.974;13.826;2022-08-19T01:14:07;19.60;99.90
30250;DHT22;17064;47.974;13.826;2022-08-19T01:19:33;19.60;99.90
30250;DHT22;17064;47.974;13.826;2022-08-19T01:24:56;19.60;99.90
30250;DHT22;17064;47.974;13.826;2022-08-19T01:30:22;19.50;99.90
30250;DHT22;17064;47.974;13.826;2022-08-19T01:35:43;19.50;99.90
30250;DHT22;17064;47.974;13.826;2022-08-19T01:41:04;19.50;99.90
30250;DHT22;17064;47.974;13.826;2022-08-19T01:46:26;19.40;99.90
30250;DHT22;17064;47.974;13.826;2022-08-19T01:51:48;19.40;99.90
30250;DHT22;17064;47.974;13.826;2022-08-19T01:57:12;19.30;99.90
30250;DHT22;17064;47.974;13.826;2022-08-19T02:02:34;19.30;99.90
30250;DHT22;17064;47.974;13.826;2022-08-19T02:07:56;19.30;99.90
30250;DHT22;17064;47.974;13.826;2022-08-19T02:13:18;19.20;99.90
30250;DHT22;17064;47.974;13.826;2022-08-19T02:18:39;19.20;99.90
30250;DHT22;17064;47.974;13.826;2022-08-19T02:24:00;19.10;99.90
30250;DHT22;17064;47.974;13.826;2022-08-19T02:29:21;19.00;99.90
30250;DHT22;17064;47.974;13.826;2022-08-19T02:34:42;19.00;99.90
30250;DHT22;17064;47.974;13.826;2022-08-19T02:40:03;18.90;99.90
30250;DHT22;17064;47.974;13.826;2022-08-19T02:45:24;18.90;99.90
30250;DHT22;17064;47.974;13.826;2022-08-19T02:50:46;18.80;99.90
30250;DHT22;17064;47.974;13.826;2022-08-19T02:56:08;18.80;99.90
30250;DHT22;17064;47.974;13.826;2022-08-19T03:01:32;18.70;99.90
30250;DHT22;17064;47.974;13.826;2022-08-19T03:06:53;18.70;99.90
30250;DHT22;17064;47.974;13.826;2022-08-19T03:12:14;18.70;99.90
30250;DHT22;17064;47.974;13.826;2022-08-19T03:17:35;18.80;99.90
30250;DHT22;17064;47.974;13.826;2022-08-19T03:22:56;18.80;99.90
30250;DHT22;17064;47.974;13.826;2022-08-19T03:28:18;18.90;99.90
30250;DHT22;17064;47.974;13.826;2022-08-19T03:33:40;18.80;99.90
30250;DHT22;17064;47.974;13.826;2022-08-19T03:39:02;18.90;99.90
30250;DHT22;17064;47.974;13.826;2022-08-19T03:44:23;18.90;99.90
30250;DHT22;17064;47.974;13.826;2022-08-19T03:49:44;18.90;99.90
30250;DHT22;17064;47.974;13.826;2022-08-19T03:55:06;18.90;99.90
30250;DHT22;17064;47.974;13.826;2022-08-19T04:00:27;18.80;99.90
30250;DHT22;17064;47.974;13.826;2022-08-19T04:05:48;18.80;99.90
30250;DHT22;17064;47.974;13.826;2022-08-19T04:11:13;18.80;99.90
30250;DHT22;17064;47.974;13.826;2022-08-19T04:16:34;18.80;99.90
30250;DHT22;17064;47.974;13.826;2022-08-19T04:21:55;18.80;99.90
30250;DHT22;17064;47.974;13.826;2022-08-19T04:27:16;18.90;99.90
30250;DHT22;17064;47.974;13.826;2022-08-19T04:32:37;18.90;99.90
30250;DHT22;17064;47.974;13.826;2022-08-19T04:37:58;18.90;99.90
30250;DHT22;17064;47.974;13.826;2022-08-19T04:43:19;19.00;99.90
30250;DHT22;17064;47.974;13.826;2022-08-19T04:48:40;18.90;99.90
30250;DHT22;17064;47.974;13.826;2022-08-19T04:54:02;18.80;99.90
30250;DHT22;17064;47.974;13.826;2022-08-19T04:59:23;18.80;99.90
30250;DHT22;17064;47.974;13.826;2022-08-19T05:04:44;18.70;99.90
30250;DHT22;17064;47.974;13.826;2022-08-19T05:10:06;18.60;99.90
30250;DHT22;17064;47.974;13.826;2022-08-19T05:15:27;18.50;99.90
30250;DHT22;17064;47.974;13.826;2022-08-19T05:20:48;18.50;99.90
30250;DHT22;17064;47.974;13.826;2022-08-19T05:26:28;18.50;99.90
30250;DHT22;17064;47.974;13.826;2022-08-19T05:31:50;18.40;99.90
30250;DHT22;17064;47.974;13.826;2022-08-19T05:37:11;18.40;99.90
30250;DHT22;17064;47.974;13.826;2022-08-19T05:42:32;18.50;99.90
30250;DHT22;17064;47.974;13.826;2022-08-19T05:47:53;18.60;99.90
30250;DHT22;17064;47.974;13.826;2022-08-19T05:53:14;18.70;99.90
30250;DHT22;17064;47.974;13.826;2022-08-19T05:58:37;18.80;99.90
30250;DHT22;17064;47.974;13.826;2022-08-19T06:03:59;19.00;99.90
30250;DHT22;17064;47.974;13.826;2022-08-19T06:09:22;19.10;99.90
30250;DHT22;17064;47.974;13.826;2022-08-19T06:14:43;19.20;99.90
30250;DHT22;17064;47.974;13.826;2022-08-19T06:20:06;19.30;99.90
30250;DHT22;17064;47.974;13.826;2022-08-19T06:25:28;19.40;99.90
30250;DHT22;17064;47.974;13.826;2022-08-19T06:30:49;19.50;99.90
30250;DHT22;17064;47.974;13.826;2022-08-19T06:41:45;19.70;99.90
30250;DHT22;17064;47.974;13.826;2022-08-19T06:47:09;19.70;99.90
30250;DHT22;17064;47.974;13.826;2022-08-19T06:52:32;19.60;99.90
30250;DHT22;17064;47.974;13.826;2022-08-19T06:57:54;19.50;99.90
30250;DHT22;17064;47.974;13.826;2022-08-19T07:03:15;19.50;99.90
30250;DHT22;17064;47.974;13.826;2022-08-19T07:08:37;19.40;99.90
30250;DHT22;17064;47.974;13.826;2022-08-19T07:14:00;19.30;99.90
30250;DHT22;17064;47.974;13.826;2022-08-19T07:19:24;19.30;99.90
30250;DHT22;17064;47.974;13.826;2022-08-19T07:24:47;19.30;99.90
30250;DHT22;17064;47.974;13.826;2022-08-19T07:30:09;19.40;99.90
30250;DHT22;17064;47.974;13.826;2022-08-19T07:35:34;19.50;99.90
30250;DHT22;17064;47.974;13.826;2022-08-19T07:40:55;19.80;99.90
30250;DHT22;17064;47.974;13.826;2022-08-19T07:46:17;20.00;99.90
30250;DHT22;17064;47.974;13.826;2022-08-19T07:51:38;20.10;99.90
30250;DHT22;17064;47.974;13.826;2022-08-19T07:56:59;20.30;99.90
30250;DHT22;17064;47.974;13.826;2022-08-19T08:02:20;20.80;99.90
30250;DHT22;17064;47.974;13.826;2022-08-19T08:07:41;21.30;99.90
30250;DHT22;17064;47.974;13.826;2022-08-19T08:13:21;21.30;99.90
30250;DHT22;17064;47.974;13.826;2022-08-19T08:18:42;21.20;99.90
30250;DHT22;17064;47.974;13.826;2022-08-19T08:24:04;21.30;99.90
30250;DHT22;17064;47.974;13.826;2022-08-19T08:29:29;21.30;99.90
30250;DHT22;17064;47.974;13.826;2022-08-19T08:34:52;21.40;99.90
30250;DHT22;17064;47.974;13.826;2022-08-19T08:45:46;21.50;99.90
30250;DHT22;17064;47.974;13.826;2022-08-19T08:51:14;21.50;99.90
30250;DHT22;17064;47.974;13.826;2022-08-19T08:56:39;21.30;99.90
30250;DHT22;17064;47.974;13.826;2022-08-19T09:02:01;21.30;99.90
30250;DHT22;17064;47.974;13.826;2022-08-19T09:07:39;21.40;99.90
30250;DHT22;17064;47.974;13.826;2022-08-19T09:18:52;21.70;99.90
30250;DHT22;17064;47.974;13.826;2022-08-19T09:24:14;21.70;99.90
30250;DHT22;17064;47.974;13.826;2022-08-19T09:29:35;21.60;99.90
30250;DHT22;17064;47.974;13.826;2022-08-19T09:34:56;21.50;99.90
30250;DHT22;17064;47.974;13.826;2022-08-19T09:40:19;21.60;99.90
30250;DHT22;17064;47.974;13.826;2022-08-19T09:45:40;21.80;99.90
30250;DHT22;17064;47.974;13.826;2022-08-19T09:51:06;22.00;99.90
30250;DHT22;17064;47.974;13.826;2022-08-19T09:56:29;22.10;99.90
30250;DHT22;17064;47.974;13.826;2022-08-19T10:01:50;22.30;99.90
30250;DHT22;17064;47.974;13.826;2022-08-19T10:07:12;22.80;99.90
30250;DHT22;17064;47.974;13.826;2022-08-19T10:12:34;23.20;99.90
30250;DHT22;17064;47.974;13.826;2022-08-19T10:17:56;23.90;99.90
30250;DHT22;17064;47.974;13.826;2022-08-19T10:23:18;24.10;99.90
30250;DHT22;17064;47.974;13.826;2022-08-19T10:28:39;24.10;99.90
30250;DHT22;17064;47.974;13.826;2022-08-19T10:34:01;24.10;99.90
30250;DHT22;17064;47.974;13.826;2022-08-19T10:39:22;24.30;99.90
30250;DHT22;17064;47.974;13.826;2022-08-19T10:44:43;24.60;99.90
30250;DHT22;17064;47.974;13.826;2022-08-19T10:50:05;24.60;99.90
30250;DHT22;17064;47.974;13.826;2022-08-19T10:55:44;24.70;99.90
30250;DHT22;17064;47.974;13.826;2022-08-19T11:01:25;24.60;99.90
30250;DHT22;17064;47.974;13.826;2022-08-19T11:06:48;24.50;99.90
30250;DHT22;17064;47.974;13.826;2022-08-19T11:12:10;24.50;99.90
30250;DHT22;17064;47.974;13.826;2022-08-19T11:17:33;24.50;99.90
30250;DHT22;17064;47.974;13.826;2022-08-19T11:22:54;24.70;99.90
30250;DHT22;17064;47.974;13.826;2022-08-19T11:28:15;25.00;99.90
30250;DHT22;17064;47.974;13.826;2022-08-19T11:33:36;25.10;99.90
30250;DHT22;17064;47.974;13.826;2022-08-19T11:38:57;25.00;99.90
30250;DHT22;17064;47.974;13.826;2022-08-19T11:44:18;24.90;99.90
30250;DHT22;17064;47.974;13.826;2022-08-19T11:49:39;24.90;99.90
30250;DHT22;17064;47.974;13.826;2022-08-19T11:55:01;24.90;99.90
30250;DHT22;17064;47.974;13.826;2022-08-19T12:00:22;24.90;99.90
30250;DHT22;17064;47.974;13.826;2022-08-19T12:05:43;24.70;99.90
30250;DHT22;17064;47.974;13.826;2022-08-19T12:11:04;24.50;99.90
30250;DHT22;17064;47.974;13.826;2022-08-19T12:16:29;24.40;99.90
30250;DHT22;17064;47.974;13.826;2022-08-19T12:21:52;24.50;99.90
30250;DHT22;17064;47.974;13.826;2022-08-19T12:27:16;24.50;99.90
30250;DHT22;17064;47.974;13.826;2022-08-19T12:32:37;24.60;99.90
30250;DHT22;17064;47.974;13.826;2022-08-19T12:37:58;24.60;99.90
30250;DHT22;17064;47.974;13.826;2022-08-19T12:43:22;24.60;99.90
30250;DHT22;17064;47.974;13.826;2022-08-19T12:48:43;24.50;99.90
30250;DHT22;17064;47.974;13.826;2022-08-19T12:54:05;24.50;99.90
30250;DHT22;17064;47.974;13.826;2022-08-19T12:59:27;24.50;99.90
30250;DHT22;17064;47.974;13.826;2022-08-19T13:04:49;24.50;99.90
30250;DHT22;17064;47.974;13.826;2022-08-19T13:10:12;24.40;99.90
30250;DHT22;17064;47.974;13.826;2022-08-19T13:15:34;24.30;99.90
30250;DHT22;17064;47.974;13.826;2022-08-19T13:20:55;24.30;99.90
30250;DHT22;17064;47.974;13.826;2022-08-19T13:26:17;24.40;99.90
30250;DHT22;17064;47.974;13.826;2022-08-19T13:31:41;24.50;99.90
30250;DHT22;17064;47.974;13.826;2022-08-19T13:37:20;24.60;99.90
30250;DHT22;17064;47.974;13.826;2022-08-19T13:43:02;24.70;99.90
30250;DHT22;17064;47.974;13.826;2022-08-19T13:48:25;24.70;99.90
30250;DHT22;17064;47.974;13.826;2022-08-19T13:53:47;24.70;99.90
30250;DHT22;17064;47.974;13.826;2022-08-19T13:59:08;24.70;99.90
30250;DHT22;17064;47.974;13.826;2022-08-19T14:04:29;24.70;99.90
30250;DHT22;17064;47.974;13.826;2022-08-19T14:09:50;24.40;99.90
30250;DHT22;17064;47.974;13.826;2022-08-19T14:15:12;24.10;99.90
30250;DHT22;17064;47.974;13.826;2022-08-19T14:20:35;23.90;99.90
30250;DHT22;17064;47.974;13.826;2022-08-19T14:26:04;22.80;99.90
30250;DHT22;17064;47.974;13.826;2022-08-19T14:31:25;20.60;99.90
30250;DHT22;17064;47.974;13.826;2022-08-19T14:36:46;18.80;99.90
30250;DHT22;17064;47.974;13.826;2022-08-19T14:42:08;17.40;99.90
30250;DHT22;17064;47.974;13.826;2022-08-19T14:47:29;16.80;99.90
30250;DHT22;17064;47.974;13.826;2022-08-19T14:53:05;16.50;99.90
30250;DHT22;17064;47.974;13.826;2022-08-19T14:58:26;16.60;99.90
30250;DHT22;17064;47.974;13.826;2022-08-19T15:03:48;16.70;99.90
30250;DHT22;17064;47.974;13.826;2022-08-19T15:09:10;16.90;99.90
30250;DHT22;17064;47.974;13.826;2022-08-19T15:14:31;17.00;99.90
30250;DHT22;17064;47.974;13.826;2022-08-19T15:19:55;17.10;99.90
30250;DHT22;17064;47.974;13.826;2022-08-19T15:25:18;17.20;99.90
30250;DHT22;17064;47.974;13.826;2022-08-19T15:30:40;17.40;99.90
30250;DHT22;17064;47.974;13.826;2022-08-19T15:36:03;17.40;99.90
30250;DHT22;17064;47.974;13.826;2022-08-19T15:41:28;17.50;99.90
30250;DHT22;17064;47.974;13.826;2022-08-19T15:46:50;17.50;99.90
30250;DHT22;17064;47.974;13.826;2022-08-19T15:52:11;17.50;99.90
30250;DHT22;17064;47.974;13.826;2022-08-19T15:57:32;17.60;99.90
30250;DHT22;17064;47.974;13.826;2022-08-19T16:03:13;17.70;99.90
30250;DHT22;17064;47.974;13.826;2022-08-19T16:08:57;17.90;99.90
30250;DHT22;17064;47.974;13.826;2022-08-19T16:14:19;17.90;99.90
30250;DHT22;17064;47.974;13.826;2022-08-19T16:19:40;17.90;99.90
30250;DHT22;17064;47.974;13.826;2022-08-19T16:25:02;18.00;99.90
30250;DHT22;17064;47.974;13.826;2022-08-19T16:30:24;18.10;99.90
30250;DHT22;17064;47.974;13.826;2022-08-19T16:35:45;18.10;99.90
30250;DHT22;17064;47.974;13.826;2022-08-19T16:41:06;18.10;99.90
30250;DHT22;17064;47.974;13.826;2022-08-19T16:46:27;18.10;99.90
30250;DHT22;17064;47.974;13.826;2022-08-19T16:51:48;18.10;99.90
30250;DHT22;17064;47.974;13.826;2022-08-19T16:57:10;18.20;99.90
30250;DHT22;17064;47.974;13.826;2022-08-19T17:02:31;18.20;99.90
30250;DHT22;17064;47.974;13.826;2022-08-19T17:07:54;18.20;99.90
30250;DHT22;17064;47.974;13.826;2022-08-19T17:13:15;18.20;99.90
30250;DHT22;17064;47.974;13.826;2022-08-19T17:18:36;18.20;99.90
30250;DHT22;17064;47.974;13.826;2022-08-19T17:23:59;18.30;99.90
30250;DHT22;17064;47.974;13.826;2022-08-19T17:29:21;18.30;99.90
30250;DHT22;17064;47.974;13.826;2022-08-19T17:34:42;18.30;99.90
30250;DHT22;17064;47.974;13.826;2022-08-19T17:40:07;18.40;99.90
30250;DHT22;17064;47.974;13.826;2022-08-19T17:45:28;18.30;99.90
30250;DHT22;17064;47.974;13.826;2022-08-19T17:50:50;18.40;99.90
30250;DHT22;17064;47.974;13.826;2022-08-19T17:56:13;18.40;99.90
30250;DHT22;17064;47.974;13.826;2022-08-19T18:01:34;18.40;99.90
30250;DHT22;17064;47.974;13.826;2022-08-19T18:06:55;18.30;99.90
30250;DHT22;17064;47.974;13.826;2022-08-19T18:12:24;18.20;99.90
30250;DHT22;17064;47.974;13.826;2022-08-19T18:17:48;18.20;99.90
30250;DHT22;17064;47.974;13.826;2022-08-19T18:23:09;18.10;99.90
30250;DHT22;17064;47.974;13.826;2022-08-19T18:28:31;18.00;99.90
30250;DHT22;17064;47.974;13.826;2022-08-19T18:33:52;18.00;99.90
30250;DHT22;17064;47.974;13.826;2022-08-19T18:39:13;17.90;99.90
30250;DHT22;17064;47.974;13.826;2022-08-19T18:44:53;17.90;99.90
30250;DHT22;17064;47.974;13.826;2022-08-19T18:50:32;17.80;99.90
30250;DHT22;17064;47.974;13.826;2022-08-19T18:55:53;17.80;99.90
30250;DHT22;17064;47.974;13.826;2022-08-19T19:01:18;17.80;99.90
30250;DHT22;17064;47.974;13.826;2022-08-19T19:06:41;17.70;99.90
30250;DHT22;17064;47.974;13.826;2022-08-19T19:12:03;17.70;99.90
30250;DHT22;17064;47.974;13.826;2022-08-19T19:17:25;17.60;99.90
30250;DHT22;17064;47.974;13.826;2022-08-19T19:22:47;17.50;99.90
30250;DHT22;17064;47.974;13.826;2022-08-19T19:28:08;17.40;99.90
30250;DHT22;17064;47.974;13.826;2022-08-19T19:33:30;17.40;99.90
30250;DHT22;17064;47.974;13.826;2022-08-19T19:38:51;17.40;99.90
30250;DHT22;17064;47.974;13.826;2022-08-19T19:44:13;17.40;99.90
30250;DHT22;17064;47.974;13.826;2022-08-19T19:49:35;17.30;99.90
30250;DHT22;17064;47.974;13.826;2022-08-19T19:54:57;17.30;99.90
30250;DHT22;17064;47.974;13.826;2022-08-19T20:00:19;17.20;99.90
30250;DHT22;17064;47.974;13.826;2022-08-19T20:05:40;17.20;99.90
30250;DHT22;17064;47.974;13.826;2022-08-19T20:11:02;17.20;99.90
30250;DHT22;17064;47.974;13.826;2022-08-19T20:16:24;17.10;99.90
30250;DHT22;17064;47.974;13.826;2022-08-19T20:21:46;17.10;99.90
30250;DHT22;17064;47.974;13.826;2022-08-19T20:27:07;17.00;99.90
30250;DHT22;17064;47.974;13.826;2022-08-19T20:32:28;17.00;99.90
30250;DHT22;17064;47.974;13.826;2022-08-19T20:37:49;17.00;99.90
30250;DHT22;17064;47.974;13.826;2022-08-19T20:43:12;16.90;99.90
30250;DHT22;17064;47.974;13.826;2022-08-19T20:48:33;16.90;99.90
30250;DHT22;17064;47.974;13.826;2022-08-19T20:53:57;16.90;99.90
30250;DHT22;17064;47.974;13.826;2022-08-19T20:59:19;16.80;99.90
30250;DHT22;17064;47.974;13.826;2022-08-19T21:04:40;16.80;99.90
30250;DHT22;17064;47.974;13.826;2022-08-19T21:10:02;16.80;99.90
30250;DHT22;17064;47.974;13.826;2022-08-19T21:15:23;16.80;99.90
30250;DHT22;17064;47.974;13.826;2022-08-19T21:20:45;16.70;99.90
30250;DHT22;17064;47.974;13.826;2022-08-19T21:26:09;16.60;99.90
30250;DHT22;17064;47.974;13.826;2022-08-19T21:31:30;16.60;99.90
30250;DHT22;17064;47.974;13.826;2022-08-19T21:36:52;16.60;99.90
30250;DHT22;17064;47.974;13.826;2022-08-19T21:42:13;16.60;99.90
30250;DHT22;17064;47.974;13.826;2022-08-19T21:47:34;16.50;99.90
30250;DHT22;17064;47.974;13.826;2022-08-19T21:52:55;16.50;99.90
30250;DHT22;17064;47.974;13.826;2022-08-19T21:58:16;16.50;99.90
30250;DHT22;17064;47.974;13.826;2022-08-19T22:03:40;16.40;99.90
30250;DHT22;17064;47.974;13.826;2022-08-19T22:09:02;16.40;99.90
30250;DHT22;17064;47.974;13.826;2022-08-19T22:14:23;16.40;99.90
30250;DHT22;17064;47.974;13.826;2022-08-19T22:19:44;16.30;99.90
30250;DHT22;17064;47.974;13.826;2022-08-19T22:25:12;16.30;99.90
30250;DHT22;17064;47.974;13.826;2022-08-19T22:30:35;16.20;99.90
30250;DHT22;17064;47.974;13.826;2022-08-19T22:35:58;16.10;99.90
30250;DHT22;17064;47.974;13.826;2022-08-19T22:41:19;16.10;99.90
30250;DHT22;17064;47.974;13.826;2022-08-19T22:46:40;16.10;99.90
30250;DHT22;17064;47.974;13.826;2022-08-19T22:52:02;16.00;99.90
30250;DHT22;17064;47.974;13.826;2022-08-19T22:57:37;16.00;99.90
30250;DHT22;17064;47.974;13.826;2022-08-19T23:02:58;16.00;99.90
30250;DHT22;17064;47.974;13.826;2022-08-19T23:08:19;15.90;99.90
30250;DHT22;17064;47.974;13.826;2022-08-19T23:13:40;15.90;99.90
30250;DHT22;17064;47.974;13.826;2022-08-19T23:19:02;15.90;99.90
30250;DHT22;17064;47.974;13.826;2022-08-19T23:24:23;15.90;99.90
30250;DHT22;17064;47.974;13.826;2022-08-19T23:29:44;15.80;99.90
30250;DHT22;17064;47.974;13.826;2022-08-19T23:35:25;15.80;99.90
30250;DHT22;17064;47.974;13.826;2022-08-19T23:40:46;15.80;99.90
30250;DHT22;17064;47.974;13.826;2022-08-19T23:46:09;15.80;99.90
30250;DHT22;17064;47.974;13.826;2022-08-19T23:51:30;15.90;99.90
30250;DHT22;17064;47.974;13.826;2022-08-19T23:56:51;16.00;99.90
